Time;durP1;ratioP1;P1;durP2;ratioP2;P2;SDS_P1;SDS_P2;PMS_P1;PMS_P2;Temp;Humidity;BMP_temperature;BMP_pressure;BME280_temperature;BME280_humidity;BME280_pressure;Samples;Min_cycle;Max_cycle;Signal;HPM_P1;HPM_P2
2022/02/13 00:01:44;;;;;;;5.15;1.67;;;23.40;70.50;;;;;;4125464;28;20159;-66
2022/02/13 00:04:07;;;;;;;7.30;1.70;;;23.40;70.00;;;;;;4130351;28;20107;-64
2022/02/13 00:06:29;;;;;;;9.32;2.20;;;23.40;69.80;;;;;;4128795;28;20584;-64
2022/02/13 00:08:53;;;;;;;6.30;1.95;;;23.40;69.10;;;;;;4122999;28;20512;-64
2022/02/13 00:11:16;;;;;;;;;;;23.40;69.00;;;;;;4131191;28;20045;-64
2022/02/13 00:13:39;;;;;;;6.65;1.75;;;23.40;69.30;;;;;;4135087;28;20322;-64
2022/02/13 00:16:01;;;;;;;7.13;1.90;;;23.40;69.20;;;;;;4134062;28;20488;-65
2022/02/13 00:18:24;;;;;;;3.60;1.50;;;23.30;69.20;;;;;;4134128;28;20147;-66
2022/02/13 00:20:46;;;;;;;4.68;1.48;;;23.40;69.50;;;;;;4129754;28;20123;-65
2022/02/13 00:23:09;;;;;;;5.65;1.80;;;23.40;69.60;;;;;;4133486;28;20769;-64
2022/02/13 00:25:31;;;;;;;4.55;1.35;;;23.50;69.50;;;;;;4124454;28;20682;-64
2022/02/13 00:27:54;;;;;;;6.45;1.90;;;23.50;69.50;;;;;;4127409;28;20068;-63
2022/02/13 00:30:18;;;;;;;4.65;1.33;;;23.50;69.40;;;;;;4130881;28;20091;-67
2022/02/13 00:32:43;;;;;;;4.18;1.33;;;23.60;69.40;;;;;;4132595;28;20043;-64
2022/02/13 00:35:07;;;;;;;6.00;1.63;;;23.60;68.90;;;;;;4137123;28;20033;-66
2022/02/13 00:37:29;;;;;;;7.00;1.33;;;23.70;68.90;;;;;;4129495;28;20045;-68
2022/02/13 00:39:52;;;;;;;6.85;1.63;;;23.70;69.20;;;;;;4121670;28;20516;-65
2022/02/13 00:42:14;;;;;;;3.42;1.25;;;23.70;68.90;;;;;;4125057;28;20047;-66
2022/02/13 00:44:37;;;;;;;7.00;1.33;;;23.70;68.90;;;;;;4119658;28;20519;-66
2022/02/13 00:46:59;;;;;;;6.63;2.03;;;23.70;69.10;;;;;;4128774;28;20461;-67
2022/02/13 00:49:22;;;;;;;5.85;1.77;;;23.70;68.70;;;;;;4114208;28;20473;-68
2022/02/13 00:51:44;;;;;;;4.07;1.30;;;23.70;68.70;;;;;;4130819;28;20038;-64
2022/02/13 00:54:07;;;;;;;4.97;1.35;;;23.70;68.40;;;;;;4129792;28;20042;-64
2022/02/13 00:56:29;;;;;;;4.20;1.50;;;23.70;67.80;;;;;;4125826;28;20073;-62
2022/02/13 00:58:52;;;;;;;3.50;1.10;;;23.80;68.40;;;;;;4130930;28;20097;-63
2022/02/13 01:01:15;;;;;;;4.78;1.48;;;23.80;68.00;;;;;;4130358;28;20219;-65
2022/02/13 01:03:38;;;;;;;5.80;1.58;;;23.80;68.20;;;;;;4129226;28;20580;-64
2022/02/13 01:06:00;;;;;;;5.50;1.50;;;23.80;68.30;;;;;;4124123;28;20044;-64
2022/02/13 01:08:24;;;;;;;3.92;1.00;;;23.80;68.40;;;;;;4134871;28;20044;-63
2022/02/13 01:10:46;;;;;;;3.72;0.98;;;23.80;67.50;;;;;;4132119;28;20050;-65
2022/02/13 01:13:09;;;;;;;2.17;1.27;;;23.80;68.00;;;;;;4128518;28;20041;-66
2022/02/13 01:15:31;;;;;;;5.72;2.08;;;23.90;68.40;;;;;;4125300;28;20481;-68
2022/02/13 01:17:54;;;;;;;2.28;1.20;;;23.90;68.80;;;;;;4132305;28;20030;-64
2022/02/13 01:20:17;;;;;;;6.15;1.50;;;24.00;68.80;;;;;;4129884;28;20132;-64
2022/02/13 01:22:39;;;;;;;4.15;1.20;;;24.00;68.40;;;;;;4139072;28;20033;-67
2022/02/13 01:25:04;;;;;;;5.57;1.10;;;24.10;68.60;;;;;;4132081;28;20096;-65
2022/02/13 01:27:29;;;;;;;4.90;1.33;;;24.10;68.30;;;;;;4140518;28;20123;-68
2022/02/13 01:29:52;;;;;;;4.95;1.45;;;24.10;68.00;;;;;;4124877;28;20057;-66
2022/02/13 01:32:14;;;;;;;9.07;1.55;;;24.20;67.80;;;;;;4117432;28;20569;-67
2022/02/13 01:34:37;;;;;;;2.55;1.15;;;24.20;67.50;;;;;;4127631;28;20400;-67
2022/02/13 01:36:59;;;;;;;3.83;1.20;;;24.20;66.80;;;;;;4125368;28;20428;-65
2022/02/13 01:39:22;;;;;;;7.25;1.40;;;24.30;66.50;;;;;;4134051;28;20053;-63
2022/02/13 01:41:49;;;;;;;3.53;1.08;;;24.30;66.40;;;;;;4126058;28;20100;-63
2022/02/13 01:44:33;;;;;;;2.72;1.17;;;24.30;65.80;;;;;;4129059;28;20051;-65
2022/02/13 01:46:56;;;;;;;5.45;1.50;;;24.40;65.10;;;;;;4135193;28;20041;-62
2022/02/13 01:49:19;;;;;;;5.78;1.33;;;24.40;64.80;;;;;;4131639;28;20041;-63
2022/02/13 01:51:41;;;;;;;9.30;1.35;;;24.40;64.80;;;;;;4123416;28;20076;-63
2022/02/13 01:54:04;;;;;;;5.18;1.52;;;24.50;63.80;;;;;;4133032;28;20157;-62
2022/02/13 01:56:26;;;;;;;4.97;1.40;;;24.40;63.20;;;;;;4129338;28;20036;-65
2022/02/13 01:58:49;;;;;;;3.83;1.45;;;24.40;62.80;;;;;;4130246;28;20042;-67
2022/02/13 02:01:12;;;;;;;3.90;1.30;;;24.40;63.10;;;;;;4124728;28;20069;-69
2022/02/13 02:03:36;;;;;;;4.63;1.52;;;24.40;63.40;;;;;;4126208;28;20049;-67
2022/02/13 02:05:58;;;;;;;;;;;24.40;63.70;;;;;;4119459;28;20116;-66
2022/02/13 02:08:20;;;;;;;8.35;1.58;;;24.40;63.90;;;;;;4126376;28;19914;-66
2022/02/13 02:10:43;;;;;;;12.43;1.52;;;24.40;63.90;;;;;;4115716;28;20064;-63
2022/02/13 02:13:05;;;;;;;4.38;1.48;;;24.40;63.80;;;;;;4119588;28;20050;-63
2022/02/13 02:15:28;;;;;;;4.22;1.45;;;24.50;64.30;;;;;;4117496;28;21120;-68
2022/02/13 02:17:51;;;;;;;2.92;1.02;;;24.50;64.40;;;;;;4120432;28;20095;-66
2022/02/13 02:20:14;;;;;;;3.85;1.10;;;24.60;64.20;;;;;;4130480;28;20108;-67
2022/02/13 02:22:37;;;;;;;6.63;1.30;;;24.60;64.30;;;;;;4122185;28;20042;-66
2022/02/13 02:24:59;;;;;;;2.45;1.05;;;24.60;64.50;;;;;;4117937;28;20046;-67
2022/02/13 02:27:21;;;;;;;4.30;1.00;;;24.70;64.50;;;;;;4130322;28;20102;-66
2022/02/13 02:29:44;;;;;;;4.70;1.40;;;24.70;64.30;;;;;;4115266;28;20262;-66
2022/02/13 02:32:11;;;;;;;5.93;1.15;;;24.80;64.00;;;;;;4120473;28;20423;-63
2022/02/13 02:34:33;;;;;;;4.55;1.00;;;24.80;63.50;;;;;;4131960;28;20105;-63
2022/02/13 02:36:56;;;;;;;2.45;0.90;;;24.80;63.80;;;;;;4127175;28;20168;-63
2022/02/13 02:39:18;;;;;;;3.63;1.02;;;24.90;63.60;;;;;;4120753;28;20056;-64
2022/02/13 02:41:41;;;;;;;2.33;0.98;;;24.90;64.00;;;;;;4124509;28;20473;-67
2022/02/13 02:44:03;;;;;;;7.00;1.63;;;25.00;64.20;;;;;;4121079;28;20532;-63
2022/02/13 02:46:26;;;;;;;19.63;2.78;;;25.00;63.50;;;;;;4123770;28;20140;-63
2022/02/13 02:48:48;;;;;;;8.23;1.33;;;25.00;63.70;;;;;;4112443;28;20042;-64
2022/02/13 02:51:11;;;;;;;10.57;1.42;;;25.00;63.40;;;;;;4128709;28;20073;-65
2022/02/13 02:53:34;;;;;;;7.70;1.50;;;25.10;63.70;;;;;;4118275;28;20050;-65
2022/02/13 02:55:58;;;;;;;5.95;1.02;;;25.10;63.60;;;;;;4117957;28;20030;-65
2022/02/13 02:58:20;;;;;;;3.55;1.10;;;25.10;63.70;;;;;;4115616;28;20125;-66
2022/02/13 03:00:43;;;;;;;5.50;1.30;;;25.20;63.60;;;;;;4125095;28;20042;-66
2022/02/13 03:03:05;;;;;;;4.80;1.20;;;25.20;63.80;;;;;;4120720;28;20030;-63
2022/02/13 03:05:29;;;;;;;4.60;1.58;;;25.20;63.50;;;;;;4131342;28;20052;-61
2022/02/13 03:07:51;;;;;;;12.68;1.42;;;25.30;63.40;;;;;;4115769;28;20124;-65
2022/02/13 03:10:14;;;;;;;4.38;1.20;;;25.30;63.00;;;;;;4120025;28;20042;-63
2022/02/13 03:12:36;;;;;;;3.28;1.10;;;25.40;62.70;;;;;;4115922;28;20077;-66
2022/02/13 03:14:58;;;;;;;8.50;1.77;;;25.40;62.70;;;;;;4118244;28;20485;-63
2022/02/13 03:17:21;;;;;;;5.88;1.65;;;25.40;62.90;;;;;;4132012;28;20037;-66
2022/02/13 03:19:43;;;;;;;4.47;1.33;;;25.40;63.50;;;;;;4124802;28;20137;-67
2022/02/13 03:22:07;;;;;;;3.38;1.48;;;25.50;62.80;;;;;;4120505;28;20038;-63
2022/02/13 03:24:29;;;;;;;3.40;1.50;;;25.50;62.20;;;;;;4131004;28;20048;-67
2022/02/13 03:26:52;;;;;;;3.78;1.33;;;25.60;62.20;;;;;;4131044;28;20042;-65
2022/02/13 03:29:14;;;;;;;4.18;1.67;;;25.60;62.20;;;;;;4128530;28;20038;-68
2022/02/13 03:31:37;;;;;;;4.32;1.80;;;25.60;62.10;;;;;;4124043;28;20050;-64
2022/02/13 03:33:59;;;;;;;5.32;1.55;;;25.60;62.20;;;;;;4131990;28;20033;-64
2022/02/13 03:36:22;;;;;;;3.05;1.13;;;25.70;61.90;;;;;;4130716;28;20041;-64
2022/02/13 03:38:44;;;;;;;2.95;1.13;;;25.70;61.90;;;;;;4134531;28;20504;-65
2022/02/13 03:41:06;;;;;;;2.95;1.23;;;25.80;61.80;;;;;;4138740;28;20097;-63
2022/02/13 03:43:29;;;;;;;6.65;1.80;;;25.80;61.70;;;;;;4134995;28;20117;-65
2022/02/13 03:45:51;;;;;;;6.00;1.50;;;25.90;61.70;;;;;;4130111;28;20042;-65
2022/02/13 03:48:14;;;;;;;3.30;1.52;;;25.90;61.20;;;;;;4131691;28;20062;-66
2022/02/13 03:50:36;;;;;;;3.70;1.48;;;25.90;61.30;;;;;;4126414;28;20054;-65
2022/02/13 03:52:59;;;;;;;2.42;0.90;;;25.90;61.50;;;;;;4129577;28;20045;-64
2022/02/13 03:55:22;;;;;;;11.48;1.70;;;26.00;61.10;;;;;;4116140;28;20043;-65
2022/02/13 03:57:45;;;;;;;1.98;0.98;;;26.00;61.00;;;;;;4124408;28;20108;-65
2022/02/13 04:00:08;;;;;;;;;;;26.10;60.70;;;;;;4123080;28;20057;-64
2022/02/13 04:02:30;;;;;;;3.42;1.25;;;26.10;60.90;;;;;;4129955;28;20111;-66
2022/02/13 04:04:53;;;;;;;2.45;1.02;;;26.10;61.00;;;;;;4114000;28;20097;-65
2022/02/13 04:07:16;;;;;;;3.85;1.50;;;26.10;61.00;;;;;;4114984;28;20034;-66
2022/02/13 04:09:39;;;;;;;3.40;1.50;;;26.10;60.90;;;;;;4118429;28;20446;-65
2022/02/13 04:12:02;;;;;;;9.38;1.38;;;26.10;60.90;;;;;;4122620;28;20845;-65
2022/02/13 04:14:25;;;;;;;2.10;0.98;;;26.10;61.10;;;;;;4124620;28;20729;-63
2022/02/13 04:16:47;;;;;;;5.43;1.77;;;26.20;60.70;;;;;;4120678;28;20524;-62
2022/02/13 04:19:09;;;;;;;4.70;1.52;;;26.20;61.50;;;;;;4125905;28;20129;-62
2022/02/13 04:21:32;;;;;;;2.78;0.85;;;26.20;60.70;;;;;;4122267;28;20038;-63
2022/02/13 04:23:54;;;;;;;2.63;1.23;;;26.20;60.60;;;;;;4117386;28;20387;-65
2022/02/13 04:26:17;;;;;;;5.00;1.10;;;26.20;60.60;;;;;;4114179;28;20121;-64
2022/02/13 04:28:40;;;;;;;4.57;1.30;;;26.30;60.10;;;;;;4116652;28;20045;-64
2022/02/13 04:31:02;;;;;;;2.17;0.90;;;26.20;60.10;;;;;;4128532;28;20291;-64
2022/02/13 04:33:25;;;;;;;3.90;1.42;;;26.30;60.10;;;;;;4130431;28;20497;-63
2022/02/13 04:35:47;;;;;;;5.03;1.27;;;;;;;;;;4130172;28;20076;-63
2022/02/13 04:38:10;;;;;;;2.88;1.05;;;26.30;59.90;;;;;;4123094;28;20547;-60
2022/02/13 04:40:32;;;;;;;8.02;1.63;;;26.40;59.50;;;;;;4114577;28;20038;-62
2022/02/13 04:42:55;;;;;;;3.17;1.00;;;26.40;59.00;;;;;;4125655;28;20038;-63
2022/02/13 04:45:18;;;;;;;2.90;0.88;;;26.50;59.00;;;;;;4115466;28;20042;-65
2022/02/13 04:47:41;;;;;;;3.00;0.88;;;26.50;59.40;;;;;;4134097;28;20041;-63
2022/02/13 04:50:04;;;;;;;1.83;1.00;;;26.50;59.10;;;;;;4127454;28;20571;-61
2022/02/13 04:52:26;;;;;;;3.72;0.98;;;26.50;59.10;;;;;;4112580;28;20280;-62
2022/02/13 04:54:49;;;;;;;3.55;1.20;;;26.60;59.10;;;;;;4123621;28;20052;-65
2022/02/13 04:57:11;;;;;;;3.85;1.08;;;26.60;58.80;;;;;;4111492;28;20042;-65
2022/02/13 04:59:37;;;;;;;5.45;1.27;;;26.60;59.10;;;;;;4111739;28;20498;-65
2022/02/13 05:02:00;;;;;;;4.32;1.15;;;26.60;59.00;;;;;;4128714;28;20049;-62
2022/02/13 05:04:22;;;;;;;2.33;1.20;;;26.70;58.40;;;;;;4125109;28;20409;-63
2022/02/13 05:06:45;;;;;;;4.85;1.05;;;26.70;58.80;;;;;;4128868;28;20044;-63
2022/02/13 05:09:08;;;;;;;3.53;1.30;;;26.80;58.50;;;;;;4126534;28;20044;-65
2022/02/13 05:11:30;;;;;;;;;;;26.90;58.10;;;;;;4125185;28;20149;-62
2022/02/13 05:13:53;;;;;;;2.63;1.00;;;27.00;58.00;;;;;;4123539;28;19918;-64
2022/02/13 05:16:16;;;;;;;4.47;1.13;;;27.00;57.90;;;;;;4121969;28;20034;-63
2022/02/13 05:18:38;;;;;;;4.45;1.52;;;27.10;57.40;;;;;;4125582;28;20048;-64
2022/02/13 05:21:01;;;;;;;5.15;2.00;;;27.20;56.80;;;;;;4131668;28;20337;-64
2022/02/13 05:23:25;;;;;;;5.13;1.42;;;27.20;56.90;;;;;;4128655;28;20763;-67
2022/02/13 05:25:47;;;;;;;5.65;1.40;;;27.30;56.50;;;;;;4127440;28;20030;-63
2022/02/13 05:28:09;;;;;;;5.95;1.50;;;27.30;56.10;;;;;;4113946;28;20042;-63
2022/02/13 05:30:32;;;;;;;3.67;1.42;;;27.30;55.70;;;;;;4124677;28;20045;-64
2022/02/13 05:32:54;;;;;;;3.13;1.20;;;27.40;55.90;;;;;;4128427;28;20038;-63
2022/02/13 05:35:17;;;;;;;5.63;1.73;;;27.40;56.00;;;;;;4120830;28;20045;-64
2022/02/13 05:37:39;;;;;;;2.40;1.23;;;27.50;55.60;;;;;;4127468;28;20048;-65
2022/02/13 05:40:03;;;;;;;4.72;1.40;;;27.60;55.60;;;;;;4114983;28;20058;-63
2022/02/13 05:42:26;;;;;;;6.93;1.58;;;27.70;55.80;;;;;;4129782;28;20038;-65
2022/02/13 05:44:48;;;;;;;3.78;1.40;;;27.80;54.90;;;;;;4116234;28;20655;-64
2022/02/13 05:47:11;;;;;;;7.97;1.65;;;27.90;54.70;;;;;;4127597;28;20069;-63
2022/02/13 05:49:35;;;;;;;4.53;1.50;;;28.00;54.40;;;;;;4128709;28;20046;-63
2022/02/13 05:51:57;;;;;;;;;;;28.00;54.60;;;;;;4117799;28;20100;-65
2022/02/13 05:54:22;;;;;;;5.72;1.45;;;28.10;54.70;;;;;;4116199;28;19921;-61
2022/02/13 05:56:45;;;;;;;14.13;1.50;;;28.20;54.60;;;;;;4116579;28;20058;-61
2022/02/13 05:59:07;;;;;;;5.82;1.25;;;28.30;54.40;;;;;;4124689;28;20548;-60
2022/02/13 06:01:30;;;;;;;2.83;1.27;;;28.30;54.30;;;;;;4121453;28;20057;-61
2022/02/13 06:03:52;;;;;;;5.40;0.88;;;28.30;54.10;;;;;;4127908;28;20042;-64
2022/02/13 06:06:15;;;;;;;4.53;1.60;;;28.40;54.30;;;;;;4128652;28;20049;-64
2022/02/13 06:08:38;;;;;;;6.82;1.85;;;28.30;54.60;;;;;;4131559;28;20038;-62
2022/02/13 06:11:01;;;;;;;2.90;1.20;;;28.30;54.80;;;;;;4137021;28;20050;-63
2022/02/13 06:13:24;;;;;;;3.73;1.40;;;28.30;54.90;;;;;;4138397;28;20071;-61
2022/02/13 06:15:46;;;;;;;3.97;1.27;;;28.30;55.20;;;;;;4120976;28;20595;-62
2022/02/13 06:18:09;;;;;;;3.40;1.00;;;28.30;55.00;;;;;;4105655;28;20189;-63
2022/02/13 06:20:31;;;;;;;4.32;1.27;;;28.40;55.20;;;;;;4123361;28;20080;-63
2022/02/13 06:22:54;;;;;;;3.72;1.17;;;28.40;54.90;;;;;;4117208;28;20038;-63
2022/02/13 06:25:16;;;;;;;3.22;1.20;;;28.50;55.00;;;;;;4123005;28;20045;-65
2022/02/13 06:27:39;;;;;;;2.85;1.48;;;28.50;55.10;;;;;;4115326;28;20151;-62
2022/02/13 06:30:01;;;;;;;3.60;1.10;;;28.50;55.30;;;;;;4118283;28;20030;-63
2022/02/13 06:32:24;;;;;;;5.03;1.33;;;28.50;55.40;;;;;;4125716;28;20153;-64
2022/02/13 06:34:47;;;;;;;4.63;1.42;;;28.40;54.30;;;;;;4126424;28;20517;-65
2022/02/13 06:37:09;;;;;;;6.05;2.40;;;28.40;53.70;;;;;;4127962;28;20563;-67
2022/02/13 06:39:32;;;;;;;6.37;3.27;;;28.40;53.90;;;;;;4123643;28;20141;-66
2022/02/13 06:41:54;;;;;;;7.93;3.90;;;28.30;54.50;;;;;;4131897;28;20034;-64
2022/02/13 06:44:17;;;;;;;6.45;3.42;;;28.30;54.30;;;;;;4119356;28;20050;-66
2022/02/13 06:46:40;;;;;;;6.10;3.50;;;28.20;54.70;;;;;;4131298;28;20472;-65
2022/02/13 06:49:03;;;;;;;8.15;3.60;;;28.20;54.50;;;;;;4126700;28;20033;-66
2022/02/13 06:51:25;;;;;;;6.80;3.13;;;28.10;54.00;;;;;;4131005;28;20080;-66
2022/02/13 06:53:48;;;;;;;8.68;3.17;;;28.10;53.70;;;;;;4122729;28;20034;-66
2022/02/13 06:56:13;;;;;;;5.80;2.88;;;28.00;53.50;;;;;;4118201;28;20116;-66
2022/02/13 06:58:35;;;;;;;5.82;2.78;;;28.00;53.50;;;;;;4118945;28;20553;-65
2022/02/13 07:00:58;;;;;;;5.53;2.20;;;28.00;53.60;;;;;;4140961;28;20041;-65
2022/02/13 07:03:20;;;;;;;5.97;2.50;;;28.00;53.50;;;;;;4117980;28;20045;-62
2022/02/13 07:05:42;;;;;;;4.90;2.50;;;28.00;53.70;;;;;;4115667;28;20513;-61
2022/02/13 07:08:05;;;;;;;5.93;2.30;;;28.00;54.10;;;;;;4127987;28;20049;-66
2022/02/13 07:10:28;;;;;;;7.13;2.53;;;28.00;54.60;;;;;;4130797;28;20054;-64
2022/02/13 07:12:50;;;;;;;8.25;2.60;;;28.10;54.80;;;;;;4112712;28;20038;-66
2022/02/13 07:15:13;;;;;;;4.57;2.33;;;28.10;54.70;;;;;;4133616;28;20037;-65
2022/02/13 07:17:36;;;;;;;5.05;2.00;;;28.10;54.70;;;;;;4134622;28;20041;-66
2022/02/13 07:19:59;;;;;;;5.53;2.00;;;28.20;54.80;;;;;;4126467;28;20046;-65
2022/02/13 07:22:23;;;;;;;7.07;2.80;;;28.20;54.90;;;;;;4117459;28;20042;-66
2022/02/13 07:24:46;;;;;;;5.47;2.75;;;28.20;54.20;;;;;;4117202;28;20510;-64
2022/02/13 07:27:09;;;;;;;6.77;2.70;;;28.20;54.10;;;;;;4127730;28;20077;-66
2022/02/13 07:29:31;;;;;;;6.15;2.70;;;28.30;53.80;;;;;;4119162;28;20409;-65
2022/02/13 07:31:54;;;;;;;6.35;2.65;;;28.20;53.00;;;;;;4121578;28;20062;-62
2022/02/13 07:34:16;;;;;;;7.10;3.03;;;28.20;54.00;;;;;;4133147;28;20037;-65
2022/02/13 07:36:39;;;;;;;5.90;2.47;;;28.20;54.70;;;;;;4129395;28;20450;-66
2022/02/13 07:39:02;;;;;;;5.85;2.53;;;28.20;54.90;;;;;;4127344;28;20127;-65
2022/02/13 07:41:26;;;;;;;6.43;2.35;;;28.20;55.10;;;;;;4135092;28;20030;-66
2022/02/13 07:43:48;;;;;;;5.63;2.20;;;28.20;55.20;;;;;;4137478;28;20041;-67
2022/02/13 07:46:11;;;;;;;5.97;2.03;;;28.20;55.40;;;;;;4117138;28;20050;-68
2022/02/13 07:48:33;;;;;;;3.22;1.83;;;28.20;55.50;;;;;;4103487;28;20739;-68
2022/02/13 07:50:56;;;;;;;3.85;1.90;;;28.20;55.60;;;;;;4109100;28;20050;-67
2022/02/13 07:53:18;;;;;;;4.15;1.55;;;28.20;55.60;;;;;;4104532;28;20102;-62
2022/02/13 07:55:41;;;;;;;7.13;2.10;;;28.20;55.90;;;;;;4114564;28;20150;-66
2022/02/13 07:58:04;;;;;;;7.28;1.92;;;28.20;55.90;;;;;;4093760;28;20078;-63
2022/02/13 08:00:26;;;;;;;7.13;2.17;;;28.20;56.50;;;;;;4114116;28;20050;-64
2022/02/13 08:02:49;;;;;;;6.05;1.95;;;28.20;56.50;;;;;;4115254;28;20541;-63
2022/02/13 08:05:11;;;;;;;3.85;1.80;;;28.20;57.00;;;;;;4115042;28;20053;-66
2022/02/13 08:07:34;;;;;;;4.15;1.50;;;28.20;56.90;;;;;;4107573;28;20506;-67
2022/02/13 08:09:56;;;;;;;5.10;1.50;;;28.20;57.00;;;;;;4113501;28;20240;-66
2022/02/13 08:12:19;;;;;;;4.05;1.40;;;28.20;57.00;;;;;;4105618;28;20027;-69
2022/02/13 08:14:41;;;;;;;3.25;1.67;;;28.20;57.10;;;;;;4106675;28;20046;-69
2022/02/13 08:17:04;;;;;;;2.83;1.05;;;28.20;57.10;;;;;;4102732;28;20738;-63
2022/02/13 08:19:26;;;;;;;3.23;1.30;;;28.20;57.20;;;;;;4103623;28;20544;-64
2022/02/13 08:21:49;;;;;;;5.75;1.38;;;28.20;56.90;;;;;;4107254;28;20081;-63
2022/02/13 08:24:11;;;;;;;4.53;1.80;;;28.20;57.10;;;;;;4107264;28;20041;-63
2022/02/13 08:26:34;;;;;;;3.28;1.60;;;28.20;57.00;;;;;;4099482;28;20113;-62
2022/02/13 08:28:56;;;;;;;12.48;1.40;;;28.20;57.20;;;;;;4104036;28;20035;-62
2022/02/13 08:31:19;;;;;;;6.28;1.60;;;28.20;57.20;;;;;;4109770;28;20041;-59
2022/02/13 08:33:42;;;;;;;4.03;1.27;;;28.20;57.20;;;;;;4108427;28;20046;-60
2022/02/13 08:36:05;;;;;;;2.88;1.15;;;28.20;57.20;;;;;;4110088;28;20074;-61
2022/02/13 08:38:27;;;;;;;3.63;1.33;;;28.10;57.20;;;;;;4097448;28;20120;-61
2022/02/13 08:40:51;;;;;;;4.18;1.13;;;28.10;57.20;;;;;;4108274;28;20436;-60
2022/02/13 08:43:14;;;;;;;2.20;0.95;;;28.10;57.30;;;;;;4106078;28;20516;-64
2022/02/13 08:45:40;;;;;;;2.53;1.05;;;28.10;57.40;;;;;;4109730;28;20057;-63
2022/02/13 08:48:02;;;;;;;3.10;1.17;;;28.10;57.40;;;;;;4128503;28;20092;-64
2022/02/13 08:50:26;;;;;;;3.30;1.30;;;28.10;57.50;;;;;;4124110;28;20034;-60
2022/02/13 08:52:48;;;;;;;;;;;28.10;57.60;;;;;;4123539;28;20402;-63
2022/02/13 08:55:14;;;;;;;1.80;0.95;;;28.10;57.60;;;;;;4128382;28;19960;-66
2022/02/13 08:57:36;;;;;;;2.10;0.88;;;28.10;57.60;;;;;;4124624;28;20037;-69
2022/02/13 08:59:59;;;;;;;3.67;1.23;;;28.10;57.70;;;;;;4125024;28;20071;-69
2022/02/13 09:02:22;;;;;;;3.80;1.20;;;28.00;57.70;;;;;;4123096;28;20044;-67
2022/02/13 09:04:44;;;;;;;5.78;1.27;;;28.00;57.70;;;;;;4121864;28;20506;-70
2022/02/13 09:07:07;;;;;;;3.95;1.17;;;28.00;57.80;;;;;;4120010;28;21466;-68
2022/02/13 09:09:30;;;;;;;3.17;1.08;;;28.00;57.80;;;;;;4119664;28;20042;-65
2022/02/13 09:11:52;;;;;;;4.18;1.38;;;28.00;58.60;;;;;;4124967;28;20029;-67
2022/02/13 09:14:15;;;;;;;2.42;1.08;;;28.00;57.90;;;;;;4120859;28;20488;-68
2022/02/13 09:16:37;;;;;;;2.53;1.10;;;27.90;57.80;;;;;;4122775;28;20066;-64
2022/02/13 09:19:00;;;;;;;2.80;1.15;;;28.00;57.90;;;;;;4126436;28;20052;-63
2022/02/13 09:21:22;;;;;;;3.17;1.25;;;28.00;57.90;;;;;;4125210;28;20045;-60
2022/02/13 09:23:45;;;;;;;2.40;1.17;;;27.90;57.80;;;;;;4127475;28;20053;-66
2022/02/13 09:26:08;;;;;;;3.93;1.30;;;27.90;57.80;;;;;;4128286;28;20042;-65
2022/02/13 09:28:30;;;;;;;4.47;1.27;;;27.90;57.90;;;;;;4106691;28;20038;-61
2022/02/13 09:30:52;;;;;;;3.60;1.00;;;27.90;57.90;;;;;;4121445;28;20022;-63
2022/02/13 09:33:16;;;;;;;5.35;1.35;;;27.90;57.90;;;;;;4125512;28;20040;-64
2022/02/13 09:35:39;;;;;;;4.18;0.98;;;27.80;57.90;;;;;;4127772;28;20531;-64
2022/02/13 09:38:01;;;;;;;2.65;0.82;;;27.80;58.00;;;;;;4127414;28;20041;-67
2022/02/13 09:40:32;;;;;;;3.00;0.90;;;27.90;58.00;;;;;;4121888;28;20563;-68
2022/02/13 09:42:55;;;;;;;3.30;1.27;;;27.80;58.00;;;;;;4122205;28;20045;-65
2022/02/13 09:45:18;;;;;;;4.25;1.30;;;27.80;58.10;;;;;;4125867;28;20047;-68
2022/02/13 09:47:41;;;;;;;3.55;1.13;;;27.80;58.10;;;;;;4109364;28;20505;-68
2022/02/13 09:50:07;;;;;;;2.92;1.42;;;27.80;58.10;;;;;;4122779;28;20042;-68
2022/02/13 09:52:31;;;;;;;3.90;0.90;;;27.70;58.00;;;;;;4122033;28;20049;-69
2022/02/13 09:54:54;;;;;;;2.90;1.20;;;27.80;57.90;;;;;;4125603;28;20442;-70
2022/02/13 09:58:17;;;;;;;2.58;1.08;;;27.70;57.90;;;;;;4128427;28;20089;-65
2022/02/13 10:00:09;;;;;;;3.55;1.05;;;27.70;58.00;;;;;;4117943;28;20140;-65
2022/02/13 10:02:37;;;;;;;2.50;1.20;;;27.70;58.10;;;;;;4123110;28;20120;-64
2022/02/13 10:05:00;;;;;;;2.63;1.10;;;27.70;58.50;;;;;;4123617;28;20046;-67
2022/02/13 10:07:23;;;;;;;3.33;1.30;;;27.70;58.30;;;;;;4127210;28;20033;-68
2022/02/13 10:09:45;;;;;;;2.58;0.95;;;27.60;58.30;;;;;;4126656;28;20038;-68
2022/02/13 10:12:11;;;;;;;2.88;1.25;;;27.70;58.40;;;;;;4123532;28;20042;-65
2022/02/13 10:14:33;;;;;;;3.35;1.00;;;27.60;58.40;;;;;;4125787;28;20391;-66
2022/02/13 10:16:58;;;;;;;4.70;1.15;;;27.60;58.30;;;;;;4123583;28;20481;-67
2022/02/13 10:19:26;;;;;;;1.75;1.10;;;27.60;58.40;;;;;;4124297;28;20049;-66
2022/02/13 10:21:55;;;;;;;2.00;1.20;;;27.50;58.40;;;;;;4125171;28;20037;-63
2022/02/13 10:24:29;;;;;;;8.13;1.70;;;27.50;58.50;;;;;;4126566;28;20626;-67
2022/02/13 10:27:03;;;;;;;;;;;27.50;58.50;;;;;;4113650;28;20034;-62
2022/02/13 10:29:27;;;;;;;2.47;1.00;;;27.50;58.40;;;;;;4128857;28;20364;-63
2022/02/13 10:31:50;;;;;;;2.50;0.98;;;27.50;58.30;;;;;;4112170;28;20046;-73
2022/02/13 10:34:21;;;;;;;7.63;1.63;;;27.50;58.40;;;;;;4130810;28;20077;-68
2022/02/13 10:36:46;;;;;;;3.42;1.05;;;27.50;58.00;;;;;;4108412;28;20061;-66
2022/02/13 10:39:20;;;;;;;2.45;0.98;;;27.50;58.00;;;;;;4107502;28;20277;-69
2022/02/13 10:41:43;;;;;;;3.15;1.20;;;27.40;58.00;;;;;;4120569;28;20175;-67
2022/02/13 10:44:07;;;;;;;2.88;1.23;;;27.40;57.90;;;;;;4123022;28;20038;-66
2022/02/13 10:46:32;;;;;;;1.88;0.90;;;27.40;58.10;;;;;;4124300;28;20049;-66
2022/02/13 10:48:55;;;;;;;5.07;1.55;;;27.40;58.20;;;;;;4118146;28;20061;-68
2022/02/13 10:51:18;;;;;;;4.32;1.13;;;27.40;58.00;;;;;;4129334;28;20030;-68
2022/02/13 10:53:42;;;;;;;4.72;1.40;;;27.40;58.20;;;;;;4135403;28;20046;-67
2022/02/13 10:56:04;;;;;;;;;;;27.40;58.00;;;;;;4122751;28;20582;-72
2022/02/13 10:58:26;;;;;;;3.55;1.20;;;27.40;57.50;;;;;;4108251;28;19914;-67
2022/02/13 11:00:49;;;;;;;2.65;1.00;;;27.30;57.40;;;;;;4127222;28;20047;-68
2022/02/13 11:03:18;;;;;;;5.30;1.10;;;27.30;57.50;;;;;;4129299;28;20041;-68
2022/02/13 11:05:42;;;;;;;4.13;1.48;;;27.30;57.70;;;;;;4135847;28;21083;-65
2022/02/13 11:08:11;;;;;;;4.15;0.90;;;27.30;57.70;;;;;;4132175;28;20448;-68
2022/02/13 11:10:50;;;;;;;1.98;0.85;;;27.30;57.80;;;;;;4123909;28;20135;-68
2022/02/13 11:13:14;;;;;;;2.63;1.20;;;27.30;57.80;;;;;;4136499;28;20104;-68
2022/02/13 11:15:42;;;;;;;3.95;1.50;;;27.30;57.80;;;;;;4115847;28;20554;-66
2022/02/13 11:18:09;;;;;;;3.00;1.17;;;27.30;57.60;;;;;;4129012;28;20446;-67
2022/02/13 11:20:33;;;;;;;3.10;1.17;;;27.30;57.40;;;;;;4111903;28;20553;-65
2022/02/13 11:23:15;;;;;;;3.22;1.13;;;27.20;57.30;;;;;;4121629;28;20540;-67
2022/02/13 11:25:51;;;;;;;3.53;1.60;;;27.20;57.40;;;;;;4118944;28;20054;-66
2022/02/13 11:28:14;;;;;;;3.83;1.23;;;27.20;57.40;;;;;;4128436;28;20581;-67
2022/02/13 11:30:49;;;;;;;2.97;1.45;;;27.20;57.20;;;;;;4122029;28;20066;-65
2022/02/13 11:33:24;;;;;;;2.55;1.20;;;27.20;57.20;;;;;;4129094;28;20041;-67
2022/02/13 11:35:58;;;;;;;3.42;1.10;;;27.10;57.30;;;;;;4125871;28;20121;-66
2022/02/13 11:38:46;;;;;;;5.85;1.48;;;27.10;57.30;;;;;;4124472;28;20034;-70
2022/02/13 11:41:09;;;;;;;9.60;1.52;;;27.10;57.50;;;;;;4128004;28;20061;-67
2022/02/13 11:43:49;;;;;;;2.75;1.17;;;27.10;57.40;;;;;;4126925;28;20572;-70
2022/02/13 11:46:40;;;;;;;2.72;1.02;;;27.10;57.50;;;;;;4125710;28;20107;-66
2022/02/13 11:49:04;;;;;;;2.80;1.50;;;27.10;57.60;;;;;;4126053;28;20625;-70
2022/02/13 11:51:46;;;;;;;7.30;1.75;;;27.10;57.70;;;;;;4130720;28;20622;-69
2022/02/13 11:54:09;;;;;;;3.83;1.17;;;27.10;58.00;;;;;;4127174;28;20536;-67
2022/02/13 11:56:31;;;;;;;4.07;1.30;;;27.10;57.60;;;;;;4129362;28;20096;-66
2022/02/13 11:58:57;;;;;;;6.45;1.58;;;27.00;57.70;;;;;;4130953;28;20077;-71
2022/02/13 12:01:36;;;;;;;2.88;1.50;;;27.00;57.90;;;;;;4185964;27;20397;-71
2022/02/13 12:03:59;;;;;;;3.25;1.55;;;27.00;57.90;;;;;;4178910;28;20036;-68
2022/02/13 12:06:29;;;;;;;3.33;1.48;;;27.00;57.70;;;;;;4197124;28;20035;-72
2022/02/13 12:08:55;;;;;;;2.10;1.23;;;27.00;57.90;;;;;;4193062;28;20796;-73
2022/02/13 12:11:18;;;;;;;3.88;1.35;;;27.00;58.00;;;;;;4202361;28;20035;-69
2022/02/13 12:13:41;;;;;;;4.07;1.77;;;27.00;58.10;;;;;;4198350;28;20049;-70
2022/02/13 12:16:09;;;;;;;4.28;1.45;;;27.00;58.00;;;;;;4195655;28;20537;-67
2022/02/13 12:18:34;;;;;;;5.57;1.90;;;27.00;58.60;;;;;;4209979;28;20031;-65
2022/02/13 12:21:01;;;;;;;5.57;1.83;;;27.00;58.20;;;;;;4209463;28;20426;-75
2022/02/13 12:23:23;;;;;;;5.35;2.10;;;26.90;58.20;;;;;;4207884;28;20024;-68
2022/02/13 12:25:47;;;;;;;7.35;2.00;;;26.90;57.60;;;;;;4209726;28;20043;-67
2022/02/13 12:28:11;;;;;;;;;;;26.90;57.90;;;;;;4211937;28;20040;-69
2022/02/13 12:30:34;;;;;;;4.22;1.67;;;26.90;58.20;;;;;;4207317;28;19912;-69
2022/02/13 12:33:02;;;;;;;6.93;2.03;;;26.80;58.00;;;;;;4205269;28;20040;-74